sensor_id;sensor_type;location;lat;lon;timestamp;P1;durP1;ratioP1;P2;durP2;ratioP2
76475;SDS011;65308;50.078;14.854;2023-05-19T00:01:11;6.43;;;3.85;;
76475;SDS011;65308;50.078;14.854;2023-05-19T00:03:47;5.97;;;3.20;;
76475;SDS011;65308;50.078;14.854;2023-05-19T00:06:16;7.55;;;4.13;;
76475;SDS011;65308;50.078;14.854;2023-05-19T00:08:48;7.25;;;3.63;;
76475;SDS011;65308;50.078;14.854;2023-05-19T00:11:17;6.38;;;3.58;;
76475;SDS011;65308;50.078;14.854;2023-05-19T00:13:46;5.43;;;3.70;;
76475;SDS011;65308;50.078;14.854;2023-05-19T00:16:15;5.80;;;3.85;;
76475;SDS011;65308;50.078;14.854;2023-05-19T00:18:42;6.63;;;3.97;;
76475;SDS011;65308;50.078;14.854;2023-05-19T00:21:08;6.10;;;3.80;;
76475;SDS011;65308;50.078;14.854;2023-05-19T00:23:35;6.88;;;3.90;;
76475;SDS011;65308;50.078;14.854;2023-05-19T00:26:01;6.80;;;4.32;;
76475;SDS011;65308;50.078;14.854;2023-05-19T00:28:29;6.47;;;3.90;;
76475;SDS011;65308;50.078;14.854;2023-05-19T00:30:56;7.50;;;3.65;;
76475;SDS011;65308;50.078;14.854;2023-05-19T00:33:22;5.53;;;3.30;;
76475;SDS011;65308;50.078;14.854;2023-05-19T00:35:49;7.45;;;3.75;;
76475;SDS011;65308;50.078;14.854;2023-05-19T00:38:16;7.10;;;3.53;;
76475;SDS011;65308;50.078;14.854;2023-05-19T00:40:44;6.53;;;4.05;;
76475;SDS011;65308;50.078;14.854;2023-05-19T00:43:11;6.53;;;3.78;;
76475;SDS011;65308;50.078;14.854;2023-05-19T00:45:39;6.95;;;3.78;;
76475;SDS011;65308;50.078;14.854;2023-05-19T00:48:06;7.53;;;4.47;;
76475;SDS011;65308;50.078;14.854;2023-05-19T00:50:33;6.72;;;3.92;;
76475;SDS011;65308;50.078;14.854;2023-05-19T00:52:59;7.75;;;4.00;;
76475;SDS011;65308;50.078;14.854;2023-05-19T00:55:27;7.15;;;3.92;;
76475;SDS011;65308;50.078;14.854;2023-05-19T00:57:55;6.65;;;3.60;;
76475;SDS011;65308;50.078;14.854;2023-05-19T01:00:22;6.88;;;3.83;;
76475;SDS011;65308;50.078;14.854;2023-05-19T01:02:51;7.53;;;4.22;;
76475;SDS011;65308;50.078;14.854;2023-05-19T01:05:18;6.45;;;3.30;;
76475;SDS011;65308;50.078;14.854;2023-05-19T01:07:45;6.97;;;3.63;;
76475;SDS011;65308;50.078;14.854;2023-05-19T01:10:15;5.38;;;3.22;;
76475;SDS011;65308;50.078;14.854;2023-05-19T01:12:42;6.05;;;3.45;;
76475;SDS011;65308;50.078;14.854;2023-05-19T01:15:09;5.15;;;3.33;;
76475;SDS011;65308;50.078;14.854;2023-05-19T01:17:38;6.45;;;3.42;;
76475;SDS011;65308;50.078;14.854;2023-05-19T01:20:13;5.50;;;3.00;;
76475;SDS011;65308;50.078;14.854;2023-05-19T01:26:03;5.75;;;3.17;;
76475;SDS011;65308;50.078;14.854;2023-05-19T01:28:47;6.40;;;3.38;;
76475;SDS011;65308;50.078;14.854;2023-05-19T01:31:23;6.53;;;3.13;;
76475;SDS011;65308;50.078;14.854;2023-05-19T01:33:52;5.13;;;3.13;;
76475;SDS011;65308;50.078;14.854;2023-05-19T01:36:19;7.07;;;3.63;;
76475;SDS011;65308;50.078;14.854;2023-05-19T01:38:48;6.70;;;3.53;;
76475;SDS011;65308;50.078;14.854;2023-05-19T01:41:17;7.47;;;4.00;;
76475;SDS011;65308;50.078;14.854;2023-05-19T01:43:44;7.03;;;3.53;;
76475;SDS011;65308;50.078;14.854;2023-05-19T01:46:12;5.68;;;3.42;;
76475;SDS011;65308;50.078;14.854;2023-05-19T01:48:43;7.90;;;3.58;;
76475;SDS011;65308;50.078;14.854;2023-05-19T01:51:10;7.45;;;3.55;;
76475;SDS011;65308;50.078;14.854;2023-05-19T01:53:37;5.70;;;3.50;;
76475;SDS011;65308;50.078;14.854;2023-05-19T01:56:04;7.30;;;3.47;;
76475;SDS011;65308;50.078;14.854;2023-05-19T01:58:34;5.72;;;3.20;;
76475;SDS011;65308;50.078;14.854;2023-05-19T02:01:09;4.75;;;3.00;;
76475;SDS011;65308;50.078;14.854;2023-05-19T02:03:46;6.63;;;3.20;;
76475;SDS011;65308;50.078;14.854;2023-05-19T02:06:29;5.07;;;2.92;;
76475;SDS011;65308;50.078;14.854;2023-05-19T02:09:02;6.43;;;3.35;;
76475;SDS011;65308;50.078;14.854;2023-05-19T02:11:34;7.13;;;3.28;;
76475;SDS011;65308;50.078;14.854;2023-05-19T02:14:05;6.53;;;3.30;;
76475;SDS011;65308;50.078;14.854;2023-05-19T02:16:36;6.07;;;3.08;;
76475;SDS011;65308;50.078;14.854;2023-05-19T02:21:32;4.75;;;3.00;;
76475;SDS011;65308;50.078;14.854;2023-05-19T02:23:58;5.32;;;3.17;;
76475;SDS011;65308;50.078;14.854;2023-05-19T02:26:25;6.65;;;3.28;;
76475;SDS011;65308;50.078;14.854;2023-05-19T02:28:52;4.90;;;2.95;;
76475;SDS011;65308;50.078;14.854;2023-05-19T02:31:19;5.97;;;3.15;;
76475;SDS011;65308;50.078;14.854;2023-05-19T02:33:45;6.10;;;3.00;;
76475;SDS011;65308;50.078;14.854;2023-05-19T02:36:13;8.18;;;3.58;;
76475;SDS011;65308;50.078;14.854;2023-05-19T02:38:40;4.50;;;2.80;;
76475;SDS011;65308;50.078;14.854;2023-05-19T02:41:06;6.38;;;3.30;;
76475;SDS011;65308;50.078;14.854;2023-05-19T02:43:33;7.78;;;3.53;;
76475;SDS011;65308;50.078;14.854;2023-05-19T02:46:00;5.18;;;3.08;;
76475;SDS011;65308;50.078;14.854;2023-05-19T02:48:26;5.93;;;3.35;;
76475;SDS011;65308;50.078;14.854;2023-05-19T02:50:53;7.28;;;3.63;;
76475;SDS011;65308;50.078;14.854;2023-05-19T02:53:21;5.93;;;3.00;;
76475;SDS011;65308;50.078;14.854;2023-05-19T02:55:47;6.65;;;3.53;;
76475;SDS011;65308;50.078;14.854;2023-05-19T02:58:14;6.72;;;3.25;;
76475;SDS011;65308;50.078;14.854;2023-05-19T03:00:41;6.75;;;3.17;;
76475;SDS011;65308;50.078;14.854;2023-05-19T03:03:09;5.20;;;3.05;;
76475;SDS011;65308;50.078;14.854;2023-05-19T03:05:35;5.20;;;3.13;;
76475;SDS011;65308;50.078;14.854;2023-05-19T03:08:02;5.32;;;3.17;;
76475;SDS011;65308;50.078;14.854;2023-05-19T03:10:31;6.65;;;3.40;;
76475;SDS011;65308;50.078;14.854;2023-05-19T03:12:58;4.80;;;3.35;;
76475;SDS011;65308;50.078;14.854;2023-05-19T03:15:24;5.45;;;3.20;;
76475;SDS011;65308;50.078;14.854;2023-05-19T03:17:51;7.07;;;3.42;;
76475;SDS011;65308;50.078;14.854;2023-05-19T03:20:17;6.75;;;3.50;;
76475;SDS011;65308;50.078;14.854;2023-05-19T03:22:44;6.28;;;3.42;;
76475;SDS011;65308;50.078;14.854;2023-05-19T03:25:11;5.88;;;3.40;;
76475;SDS011;65308;50.078;14.854;2023-05-19T03:27:39;6.30;;;3.22;;
76475;SDS011;65308;50.078;14.854;2023-05-19T03:30:06;5.63;;;3.13;;
76475;SDS011;65308;50.078;14.854;2023-05-19T03:32:33;8.20;;;3.50;;
76475;SDS011;65308;50.078;14.854;2023-05-19T03:35:01;5.50;;;3.30;;
76475;SDS011;65308;50.078;14.854;2023-05-19T03:37:28;5.05;;;3.25;;
76475;SDS011;65308;50.078;14.854;2023-05-19T03:39:55;7.63;;;3.40;;
76475;SDS011;65308;50.078;14.854;2023-05-19T03:42:21;6.53;;;3.25;;
76475;SDS011;65308;50.078;14.854;2023-05-19T03:44:50;7.70;;;3.42;;
76475;SDS011;65308;50.078;14.854;2023-05-19T03:47:16;7.05;;;3.35;;
76475;SDS011;65308;50.078;14.854;2023-05-19T03:49:43;9.13;;;4.13;;
76475;SDS011;65308;50.078;14.854;2023-05-19T03:52:10;8.10;;;3.92;;
76475;SDS011;65308;50.078;14.854;2023-05-19T03:54:37;6.38;;;3.80;;
76475;SDS011;65308;50.078;14.854;2023-05-19T03:57:09;6.65;;;3.50;;
76475;SDS011;65308;50.078;14.854;2023-05-19T03:59:36;7.03;;;3.88;;
76475;SDS011;65308;50.078;14.854;2023-05-19T04:02:04;6.82;;;3.70;;
76475;SDS011;65308;50.078;14.854;2023-05-19T04:04:30;6.32;;;3.72;;
76475;SDS011;65308;50.078;14.854;2023-05-19T04:06:57;7.88;;;4.20;;
76475;SDS011;65308;50.078;14.854;2023-05-19T04:09:23;7.25;;;3.88;;
76475;SDS011;65308;50.078;14.854;2023-05-19T04:11:50;5.55;;;3.45;;
76475;SDS011;65308;50.078;14.854;2023-05-19T04:14:17;6.03;;;3.95;;
76475;SDS011;65308;50.078;14.854;2023-05-19T04:16:44;6.55;;;3.35;;
76475;SDS011;65308;50.078;14.854;2023-05-19T04:19:12;6.85;;;4.20;;
76475;SDS011;65308;50.078;14.854;2023-05-19T04:21:38;7.50;;;4.00;;
76475;SDS011;65308;50.078;14.854;2023-05-19T04:24:05;7.38;;;3.80;;
76475;SDS011;65308;50.078;14.854;2023-05-19T04:26:32;8.55;;;4.80;;
76475;SDS011;65308;50.078;14.854;2023-05-19T04:29:00;5.97;;;3.60;;
76475;SDS011;65308;50.078;14.854;2023-05-19T04:31:29;7.93;;;4.85;;
76475;SDS011;65308;50.078;14.854;2023-05-19T04:33:59;6.25;;;4.38;;
76475;SDS011;65308;50.078;14.854;2023-05-19T04:36:28;7.32;;;3.95;;
76475;SDS011;65308;50.078;14.854;2023-05-19T04:38:55;5.72;;;3.90;;
76475;SDS011;65308;50.078;14.854;2023-05-19T04:41:26;10.13;;;4.50;;
76475;SDS011;65308;50.078;14.854;2023-05-19T04:43:53;26.60;;;14.05;;
76475;SDS011;65308;50.078;14.854;2023-05-19T04:46:23;28.60;;;14.38;;
76475;SDS011;65308;50.078;14.854;2023-05-19T04:48:50;17.70;;;10.07;;
76475;SDS011;65308;50.078;14.854;2023-05-19T04:51:17;15.98;;;10.82;;
76475;SDS011;65308;50.078;14.854;2023-05-19T04:53:45;9.02;;;5.20;;
76475;SDS011;65308;50.078;14.854;2023-05-19T04:56:11;8.50;;;5.00;;
76475;SDS011;65308;50.078;14.854;2023-05-19T04:58:39;11.02;;;4.63;;
76475;SDS011;65308;50.078;14.854;2023-05-19T05:01:06;6.28;;;4.03;;
76475;SDS011;65308;50.078;14.854;2023-05-19T05:03:33;6.63;;;4.28;;
76475;SDS011;65308;50.078;14.854;2023-05-19T05:06:00;7.45;;;4.03;;
76475;SDS011;65308;50.078;14.854;2023-05-19T05:08:26;6.78;;;4.43;;
76475;SDS011;65308;50.078;14.854;2023-05-19T05:10:55;6.60;;;4.07;;
76475;SDS011;65308;50.078;14.854;2023-05-19T05:13:23;7.70;;;4.35;;
76475;SDS011;65308;50.078;14.854;2023-05-19T05:15:51;6.85;;;4.85;;
76475;SDS011;65308;50.078;14.854;2023-05-19T05:20:45;7.00;;;4.75;;
76475;SDS011;65308;50.078;14.854;2023-05-19T05:23:12;6.45;;;4.57;;
76475;SDS011;65308;50.078;14.854;2023-05-19T05:25:42;6.57;;;4.15;;
76475;SDS011;65308;50.078;14.854;2023-05-19T05:28:10;6.50;;;4.40;;
76475;SDS011;65308;50.078;14.854;2023-05-19T05:30:37;7.22;;;5.05;;
76475;SDS011;65308;50.078;14.854;2023-05-19T05:33:05;6.30;;;4.30;;
76475;SDS011;65308;50.078;14.854;2023-05-19T05:35:32;7.10;;;4.32;;
76475;SDS011;65308;50.078;14.854;2023-05-19T05:37:59;8.32;;;4.63;;
76475;SDS011;65308;50.078;14.854;2023-05-19T05:40:26;6.93;;;4.20;;
76475;SDS011;65308;50.078;14.854;2023-05-19T05:42:53;5.60;;;4.00;;
76475;SDS011;65308;50.078;14.854;2023-05-19T05:45:21;4.85;;;4.03;;
76475;SDS011;65308;50.078;14.854;2023-05-19T05:47:48;7.65;;;4.70;;
76475;SDS011;65308;50.078;14.854;2023-05-19T05:50:18;6.32;;;4.20;;
76475;SDS011;65308;50.078;14.854;2023-05-19T05:52:46;7.15;;;4.25;;
76475;SDS011;65308;50.078;14.854;2023-05-19T05:55:14;5.88;;;4.20;;
76475;SDS011;65308;50.078;14.854;2023-05-19T05:57:42;5.97;;;4.10;;
76475;SDS011;65308;50.078;14.854;2023-05-19T06:00:09;11.13;;;5.70;;
76475;SDS011;65308;50.078;14.854;2023-05-19T06:02:41;7.22;;;4.03;;
76475;SDS011;65308;50.078;14.854;2023-05-19T06:05:08;7.43;;;5.13;;
76475;SDS011;65308;50.078;14.854;2023-05-19T06:07:38;10.90;;;6.63;;
76475;SDS011;65308;50.078;14.854;2023-05-19T06:10:05;6.80;;;4.63;;
76475;SDS011;65308;50.078;14.854;2023-05-19T06:12:41;6.60;;;5.43;;
76475;SDS011;65308;50.078;14.854;2023-05-19T06:15:11;6.47;;;4.78;;
76475;SDS011;65308;50.078;14.854;2023-05-19T06:17:38;6.05;;;5.10;;
76475;SDS011;65308;50.078;14.854;2023-05-19T06:20:06;6.38;;;4.45;;
76475;SDS011;65308;50.078;14.854;2023-05-19T06:22:34;7.97;;;4.50;;
76475;SDS011;65308;50.078;14.854;2023-05-19T06:25:01;6.70;;;4.70;;
76475;SDS011;65308;50.078;14.854;2023-05-19T06:27:28;5.78;;;4.25;;
76475;SDS011;65308;50.078;14.854;2023-05-19T06:29:55;7.55;;;5.55;;
76475;SDS011;65308;50.078;14.854;2023-05-19T06:32:22;6.45;;;4.90;;
76475;SDS011;65308;50.078;14.854;2023-05-19T06:34:49;6.43;;;4.78;;
76475;SDS011;65308;50.078;14.854;2023-05-19T06:37:20;7.35;;;5.53;;
76475;SDS011;65308;50.078;14.854;2023-05-19T06:39:48;8.23;;;6.00;;
76475;SDS011;65308;50.078;14.854;2023-05-19T06:42:16;7.35;;;4.55;;
76475;SDS011;65308;50.078;14.854;2023-05-19T06:44:46;6.93;;;3.90;;
76475;SDS011;65308;50.078;14.854;2023-05-19T06:47:13;6.22;;;4.13;;
76475;SDS011;65308;50.078;14.854;2023-05-19T06:49:40;6.30;;;4.20;;
76475;SDS011;65308;50.078;14.854;2023-05-19T06:52:06;5.68;;;3.60;;
76475;SDS011;65308;50.078;14.854;2023-05-19T06:54:35;13.18;;;4.88;;
76475;SDS011;65308;50.078;14.854;2023-05-19T06:57:02;5.82;;;4.20;;
76475;SDS011;65308;50.078;14.854;2023-05-19T06:59:29;6.97;;;4.35;;
76475;SDS011;65308;50.078;14.854;2023-05-19T07:01:56;6.85;;;4.18;;
76475;SDS011;65308;50.078;14.854;2023-05-19T07:04:23;5.53;;;4.40;;
76475;SDS011;65308;50.078;14.854;2023-05-19T07:06:50;6.50;;;4.00;;
76475;SDS011;65308;50.078;14.854;2023-05-19T07:09:17;6.05;;;4.38;;
76475;SDS011;65308;50.078;14.854;2023-05-19T07:11:45;7.13;;;4.40;;
76475;SDS011;65308;50.078;14.854;2023-05-19T07:14:12;6.45;;;4.28;;
76475;SDS011;65308;50.078;14.854;2023-05-19T07:16:39;6.78;;;3.95;;
76475;SDS011;65308;50.078;14.854;2023-05-19T07:19:08;5.32;;;4.03;;
76475;SDS011;65308;50.078;14.854;2023-05-19T07:21:34;4.97;;;3.78;;
76475;SDS011;65308;50.078;14.854;2023-05-19T07:24:01;5.05;;;3.85;;
76475;SDS011;65308;50.078;14.854;2023-05-19T07:26:28;5.18;;;3.72;;
76475;SDS011;65308;50.078;14.854;2023-05-19T07:28:56;6.97;;;4.20;;
76475;SDS011;65308;50.078;14.854;2023-05-19T07:31:23;6.55;;;3.67;;
76475;SDS011;65308;50.078;14.854;2023-05-19T07:33:49;5.47;;;3.80;;
76475;SDS011;65308;50.078;14.854;2023-05-19T07:36:19;5.57;;;3.70;;
76475;SDS011;65308;50.078;14.854;2023-05-19T07:38:50;6.60;;;4.18;;
76475;SDS011;65308;50.078;14.854;2023-05-19T07:41:17;6.22;;;3.90;;
76475;SDS011;65308;50.078;14.854;2023-05-19T07:43:43;6.55;;;4.80;;
76475;SDS011;65308;50.078;14.854;2023-05-19T07:46:11;5.85;;;3.90;;
76475;SDS011;65308;50.078;14.854;2023-05-19T07:48:38;5.90;;;4.00;;
76475;SDS011;65308;50.078;14.854;2023-05-19T07:51:05;6.03;;;4.20;;
76475;SDS011;65308;50.078;14.854;2023-05-19T07:53:34;6.35;;;4.22;;
76475;SDS011;65308;50.078;14.854;2023-05-19T07:56:00;4.90;;;4.00;;
76475;SDS011;65308;50.078;14.854;2023-05-19T07:58:27;6.20;;;3.95;;
76475;SDS011;65308;50.078;14.854;2023-05-19T08:00:55;5.90;;;4.30;;
76475;SDS011;65308;50.078;14.854;2023-05-19T08:03:24;5.40;;;3.78;;
76475;SDS011;65308;50.078;14.854;2023-05-19T08:05:50;5.30;;;4.05;;
76475;SDS011;65308;50.078;14.854;2023-05-19T08:08:17;5.70;;;3.80;;
76475;SDS011;65308;50.078;14.854;2023-05-19T08:10:44;8.05;;;4.22;;
76475;SDS011;65308;50.078;14.854;2023-05-19T08:13:11;5.25;;;4.20;;
76475;SDS011;65308;50.078;14.854;2023-05-19T08:15:38;7.20;;;4.63;;
76475;SDS011;65308;50.078;14.854;2023-05-19T08:18:07;6.57;;;4.30;;
76475;SDS011;65308;50.078;14.854;2023-05-19T08:20:35;6.65;;;4.90;;
76475;SDS011;65308;50.078;14.854;2023-05-19T08:23:01;6.50;;;4.70;;
76475;SDS011;65308;50.078;14.854;2023-05-19T08:25:30;6.88;;;5.55;;
76475;SDS011;65308;50.078;14.854;2023-05-19T08:27:58;7.07;;;4.97;;
76475;SDS011;65308;50.078;14.854;2023-05-19T08:30:25;7.20;;;5.07;;
76475;SDS011;65308;50.078;14.854;2023-05-19T08:32:52;6.75;;;6.07;;
76475;SDS011;65308;50.078;14.854;2023-05-19T08:35:20;9.93;;;5.25;;
76475;SDS011;65308;50.078;14.854;2023-05-19T08:37:48;5.18;;;4.65;;
76475;SDS011;65308;50.078;14.854;2023-05-19T08:40:15;4.95;;;4.05;;
76475;SDS011;65308;50.078;14.854;2023-05-19T08:42:45;5.70;;;4.00;;
76475;SDS011;65308;50.078;14.854;2023-05-19T08:45:17;10.05;;;4.60;;
76475;SDS011;65308;50.078;14.854;2023-05-19T08:47:45;6.78;;;4.72;;
76475;SDS011;65308;50.078;14.854;2023-05-19T08:50:13;5.93;;;5.00;;
76475;SDS011;65308;50.078;14.854;2023-05-19T08:52:45;5.93;;;4.75;;
76475;SDS011;65308;50.078;14.854;2023-05-19T08:55:20;6.55;;;4.35;;
76475;SDS011;65308;50.078;14.854;2023-05-19T08:57:54;6.25;;;4.22;;
76475;SDS011;65308;50.078;14.854;2023-05-19T09:02:48;7.35;;;4.82;;
76475;SDS011;65308;50.078;14.854;2023-05-19T09:05:16;6.55;;;4.57;;
76475;SDS011;65308;50.078;14.854;2023-05-19T09:07:45;12.98;;;4.70;;
76475;SDS011;65308;50.078;14.854;2023-05-19T09:10:12;5.93;;;4.10;;
76475;SDS011;65308;50.078;14.854;2023-05-19T09:12:42;7.15;;;4.20;;
76475;SDS011;65308;50.078;14.854;2023-05-19T09:15:11;7.47;;;4.43;;
76475;SDS011;65308;50.078;14.854;2023-05-19T09:17:38;6.13;;;4.53;;
76475;SDS011;65308;50.078;14.854;2023-05-19T09:20:05;7.20;;;4.50;;
76475;SDS011;65308;50.078;14.854;2023-05-19T09:22:39;5.22;;;4.00;;
76475;SDS011;65308;50.078;14.854;2023-05-19T09:25:16;5.88;;;3.85;;
76475;SDS011;65308;50.078;14.854;2023-05-19T09:27:46;5.68;;;3.70;;
76475;SDS011;65308;50.078;14.854;2023-05-19T09:30:14;5.57;;;3.78;;
76475;SDS011;65308;50.078;14.854;2023-05-19T09:32:41;5.65;;;4.07;;
76475;SDS011;65308;50.078;14.854;2023-05-19T09:35:08;6.05;;;3.55;;
76475;SDS011;65308;50.078;14.854;2023-05-19T09:37:58;5.60;;;3.72;;
76475;SDS011;65308;50.078;14.854;2023-05-19T09:40:26;5.50;;;3.47;;
76475;SDS011;65308;50.078;14.854;2023-05-19T09:45:30;5.60;;;3.28;;
76475;SDS011;65308;50.078;14.854;2023-05-19T09:47:56;4.93;;;3.47;;
76475;SDS011;65308;50.078;14.854;2023-05-19T09:50:29;4.95;;;3.40;;
76475;SDS011;65308;50.078;14.854;2023-05-19T09:52:58;4.78;;;3.33;;
76475;SDS011;65308;50.078;14.854;2023-05-19T09:57:54;6.00;;;3.58;;
76475;SDS011;65308;50.078;14.854;2023-05-19T10:00:21;4.53;;;3.30;;
76475;SDS011;65308;50.078;14.854;2023-05-19T10:02:50;5.78;;;3.35;;
76475;SDS011;65308;50.078;14.854;2023-05-19T10:05:21;5.35;;;3.50;;
76475;SDS011;65308;50.078;14.854;2023-05-19T10:07:48;6.07;;;3.45;;
76475;SDS011;65308;50.078;14.854;2023-05-19T10:10:16;6.25;;;3.40;;
76475;SDS011;65308;50.078;14.854;2023-05-19T10:12:45;4.72;;;3.17;;
76475;SDS011;65308;50.078;14.854;2023-05-19T10:15:13;5.28;;;3.47;;
76475;SDS011;65308;50.078;14.854;2023-05-19T10:17:41;5.60;;;3.67;;
76475;SDS011;65308;50.078;14.854;2023-05-19T10:20:11;22.98;;;4.97;;
76475;SDS011;65308;50.078;14.854;2023-05-19T10:22:39;7.43;;;3.53;;
76475;SDS011;65308;50.078;14.854;2023-05-19T10:25:07;5.18;;;3.55;;
76475;SDS011;65308;50.078;14.854;2023-05-19T10:27:36;6.20;;;3.70;;
76475;SDS011;65308;50.078;14.854;2023-05-19T10:30:07;5.15;;;3.17;;
76475;SDS011;65308;50.078;14.854;2023-05-19T10:32:37;5.13;;;3.63;;
76475;SDS011;65308;50.078;14.854;2023-05-19T10:35:18;6.82;;;3.28;;
76475;SDS011;65308;50.078;14.854;2023-05-19T10:38:05;6.00;;;3.50;;
76475;SDS011;65308;50.078;14.854;2023-05-19T10:40:40;6.32;;;3.80;;
76475;SDS011;65308;50.078;14.854;2023-05-19T10:43:14;5.43;;;3.55;;
76475;SDS011;65308;50.078;14.854;2023-05-19T10:45:46;6.63;;;3.70;;
76475;SDS011;65308;50.078;14.854;2023-05-19T10:48:14;4.97;;;3.50;;
76475;SDS011;65308;50.078;14.854;2023-05-19T10:50:43;8.68;;;3.95;;
76475;SDS011;65308;50.078;14.854;2023-05-19T10:53:14;8.23;;;3.78;;
76475;SDS011;65308;50.078;14.854;2023-05-19T10:55:45;5.75;;;3.50;;
76475;SDS011;65308;50.078;14.854;2023-05-19T10:58:35;5.18;;;3.38;;
76475;SDS011;65308;50.078;14.854;2023-05-19T11:01:05;5.45;;;3.30;;
76475;SDS011;65308;50.078;14.854;2023-05-19T11:03:41;6.90;;;3.78;;
76475;SDS011;65308;50.078;14.854;2023-05-19T11:06:23;6.53;;;3.90;;
76475;SDS011;65308;50.078;14.854;2023-05-19T11:08:51;4.75;;;3.20;;
76475;SDS011;65308;50.078;14.854;2023-05-19T11:11:19;7.15;;;3.75;;
76475;SDS011;65308;50.078;14.854;2023-05-19T11:13:47;5.25;;;3.30;;
76475;SDS011;65308;50.078;14.854;2023-05-19T11:16:17;5.68;;;3.40;;
76475;SDS011;65308;50.078;14.854;2023-05-19T11:18:47;5.50;;;3.45;;
76475;SDS011;65308;50.078;14.854;2023-05-19T11:21:14;5.68;;;3.00;;
76475;SDS011;65308;50.078;14.854;2023-05-19T11:23:43;5.63;;;3.50;;
76475;SDS011;65308;50.078;14.854;2023-05-19T11:26:09;4.43;;;2.83;;
76475;SDS011;65308;50.078;14.854;2023-05-19T11:28:38;6.38;;;3.63;;
76475;SDS011;65308;50.078;14.854;2023-05-19T11:31:05;5.30;;;3.28;;
76475;SDS011;65308;50.078;14.854;2023-05-19T11:33:34;5.18;;;3.15;;
76475;SDS011;65308;50.078;14.854;2023-05-19T11:36:01;4.57;;;3.10;;
76475;SDS011;65308;50.078;14.854;2023-05-19T11:38:28;6.70;;;3.67;;
76475;SDS011;65308;50.078;14.854;2023-05-19T11:40:56;6.03;;;3.60;;
76475;SDS011;65308;50.078;14.854;2023-05-19T11:43:22;5.43;;;3.47;;
76475;SDS011;65308;50.078;14.854;2023-05-19T11:45:50;4.30;;;3.08;;
76475;SDS011;65308;50.078;14.854;2023-05-19T11:48:22;4.85;;;3.53;;
76475;SDS011;65308;50.078;14.854;2023-05-19T11:50:50;5.60;;;4.00;;
76475;SDS011;65308;50.078;14.854;2023-05-19T11:53:16;5.05;;;3.10;;
76475;SDS011;65308;50.078;14.854;2023-05-19T11:55:45;6.78;;;3.30;;
76475;SDS011;65308;50.078;14.854;2023-05-19T11:58:16;5.90;;;4.07;;
76475;SDS011;65308;50.078;14.854;2023-05-19T12:00:43;4.97;;;3.28;;
76475;SDS011;65308;50.078;14.854;2023-05-19T12:03:11;4.45;;;3.20;;
76475;SDS011;65308;50.078;14.854;2023-05-19T12:05:42;5.25;;;3.25;;
76475;SDS011;65308;50.078;14.854;2023-05-19T12:08:15;4.68;;;2.92;;
76475;SDS011;65308;50.078;14.854;2023-05-19T12:10:42;4.45;;;3.05;;
76475;SDS011;65308;50.078;14.854;2023-05-19T12:13:09;4.88;;;3.15;;
76475;SDS011;65308;50.078;14.854;2023-05-19T12:15:37;5.43;;;3.20;;
76475;SDS011;65308;50.078;14.854;2023-05-19T12:18:04;4.88;;;3.15;;
76475;SDS011;65308;50.078;14.854;2023-05-19T12:20:30;5.15;;;3.17;;
76475;SDS011;65308;50.078;14.854;2023-05-19T12:23:00;5.85;;;3.72;;
76475;SDS011;65308;50.078;14.854;2023-05-19T12:25:31;5.15;;;3.53;;
76475;SDS011;65308;50.078;14.854;2023-05-19T12:28:00;5.15;;;3.60;;
76475;SDS011;65308;50.078;14.854;2023-05-19T12:30:28;6.28;;;3.50;;
76475;SDS011;65308;50.078;14.854;2023-05-19T12:33:01;4.93;;;3.78;;
76475;SDS011;65308;50.078;14.854;2023-05-19T12:35:29;4.53;;;3.38;;
76475;SDS011;65308;50.078;14.854;2023-05-19T12:38:01;4.68;;;3.40;;
76475;SDS011;65308;50.078;14.854;2023-05-19T12:40:28;4.90;;;3.25;;
76475;SDS011;65308;50.078;14.854;2023-05-19T12:42:58;7.10;;;3.42;;
76475;SDS011;65308;50.078;14.854;2023-05-19T12:45:25;5.00;;;3.20;;
76475;SDS011;65308;50.078;14.854;2023-05-19T12:47:52;4.70;;;3.20;;
76475;SDS011;65308;50.078;14.854;2023-05-19T12:50:29;5.03;;;3.38;;
76475;SDS011;65308;50.078;14.854;2023-05-19T12:52:56;5.40;;;3.50;;
76475;SDS011;65308;50.078;14.854;2023-05-19T12:55:28;7.38;;;3.45;;
76475;SDS011;65308;50.078;14.854;2023-05-19T12:57:56;6.45;;;3.42;;
76475;SDS011;65308;50.078;14.854;2023-05-19T13:00:31;5.60;;;3.65;;
76475;SDS011;65308;50.078;14.854;2023-05-19T13:03:00;5.65;;;3.13;;
76475;SDS011;65308;50.078;14.854;2023-05-19T13:05:31;4.35;;;2.85;;
76475;SDS011;65308;50.078;14.854;2023-05-19T13:07:59;5.00;;;3.28;;
76475;SDS011;65308;50.078;14.854;2023-05-19T13:10:28;4.70;;;3.40;;
76475;SDS011;65308;50.078;14.854;2023-05-19T13:12:57;12.52;;;3.85;;
76475;SDS011;65308;50.078;14.854;2023-05-19T13:15:29;5.55;;;3.13;;
76475;SDS011;65308;50.078;14.854;2023-05-19T13:17:58;6.03;;;3.42;;
76475;SDS011;65308;50.078;14.854;2023-05-19T13:20:34;6.45;;;3.35;;
76475;SDS011;65308;50.078;14.854;2023-05-19T13:23:01;5.97;;;3.50;;
76475;SDS011;65308;50.078;14.854;2023-05-19T13:25:28;5.22;;;3.58;;
76475;SDS011;65308;50.078;14.854;2023-05-19T13:28:05;6.20;;;4.00;;
76475;SDS011;65308;50.078;14.854;2023-05-19T13:30:58;8.88;;;3.20;;
76475;SDS011;65308;50.078;14.854;2023-05-19T13:33:25;4.43;;;2.90;;
76475;SDS011;65308;50.078;14.854;2023-05-19T13:38:29;6.40;;;3.40;;
76475;SDS011;65308;50.078;14.854;2023-05-19T13:41:09;4.65;;;3.03;;
76475;SDS011;65308;50.078;14.854;2023-05-19T13:43:42;6.28;;;3.08;;
76475;SDS011;65308;50.078;14.854;2023-05-19T13:46:11;6.35;;;3.58;;
76475;SDS011;65308;50.078;14.854;2023-05-19T13:48:39;4.65;;;3.17;;
76475;SDS011;65308;50.078;14.854;2023-05-19T13:51:07;5.10;;;3.30;;
76475;SDS011;65308;50.078;14.854;2023-05-19T13:53:42;5.20;;;3.63;;
76475;SDS011;65308;50.078;14.854;2023-05-19T13:56:08;4.97;;;3.35;;
76475;SDS011;65308;50.078;14.854;2023-05-19T13:58:35;4.85;;;3.53;;
76475;SDS011;65308;50.078;14.854;2023-05-19T14:01:02;7.35;;;3.80;;
76475;SDS011;65308;50.078;14.854;2023-05-19T14:03:29;5.80;;;3.65;;
76475;SDS011;65308;50.078;14.854;2023-05-19T14:06:02;6.03;;;3.83;;
76475;SDS011;65308;50.078;14.854;2023-05-19T14:08:35;5.35;;;3.78;;
76475;SDS011;65308;50.078;14.854;2023-05-19T14:11:03;5.13;;;3.88;;
76475;SDS011;65308;50.078;14.854;2023-05-19T14:13:30;5.82;;;3.72;;
76475;SDS011;65308;50.078;14.854;2023-05-19T14:15:57;5.80;;;4.45;;
76475;SDS011;65308;50.078;14.854;2023-05-19T14:18:35;6.97;;;3.90;;
76475;SDS011;65308;50.078;14.854;2023-05-19T14:21:11;5.03;;;3.63;;
76475;SDS011;65308;50.078;14.854;2023-05-19T14:26:09;5.30;;;3.55;;
76475;SDS011;65308;50.078;14.854;2023-05-19T14:28:38;6.03;;;3.78;;
76475;SDS011;65308;50.078;14.854;2023-05-19T14:31:05;4.78;;;3.30;;
76475;SDS011;65308;50.078;14.854;2023-05-19T14:33:36;6.22;;;3.83;;
76475;SDS011;65308;50.078;14.854;2023-05-19T14:36:02;6.45;;;3.65;;
76475;SDS011;65308;50.078;14.854;2023-05-19T14:38:30;5.30;;;3.60;;
76475;SDS011;65308;50.078;14.854;2023-05-19T14:45:59;4.30;;;3.40;;
76475;SDS011;65308;50.078;14.854;2023-05-19T14:48:29;13.25;;;4.82;;
76475;SDS011;65308;50.078;14.854;2023-05-19T14:50:56;6.43;;;3.90;;
76475;SDS011;65308;50.078;14.854;2023-05-19T14:53:23;5.07;;;3.90;;
76475;SDS011;65308;50.078;14.854;2023-05-19T14:55:50;5.47;;;3.90;;
76475;SDS011;65308;50.078;14.854;2023-05-19T14:58:17;4.80;;;3.63;;
76475;SDS011;65308;50.078;14.854;2023-05-19T15:00:47;6.07;;;3.90;;
76475;SDS011;65308;50.078;14.854;2023-05-19T15:03:16;5.45;;;3.78;;
76475;SDS011;65308;50.078;14.854;2023-05-19T15:05:43;5.05;;;3.85;;
76475;SDS011;65308;50.078;14.854;2023-05-19T15:08:10;4.90;;;3.70;;